Time;durP1;ratioP1;P1;durP2;ratioP2;P2;SDS_P1;SDS_P2;PMS_P1;PMS_P2;Temp;Humidity;BMP_temperature;BMP_pressure;BME280_temperature;BME280_humidity;BME280_pressure;Samples;Min_cycle;Max_cycle;Signal;HPM_P1;HPM_P2
2021/07/04 00:01:20;;;;;;;;;;;19.20;99.90;;;;;;5088080;28;19963;-72
2021/07/04 00:03:47;;;;;;;;;;;19.20;99.90;;;;;;5086131;28;19931;-72
2021/07/04 00:06:14;;;;;;;;;;;19.30;99.90;;;;;;5081926;28;20066;-72
2021/07/04 00:08:40;;;;;;;;;;;19.20;99.90;;;;;;5082075;28;20363;-72
2021/07/04 00:11:08;;;;;;;;;;;19.20;99.90;;;;;;5083646;28;20916;-72
2021/07/04 00:13:35;;;;;;;;;;;19.20;99.90;;;;;;5085381;28;19963;-72
2021/07/04 00:16:03;;;;;;;;;;;19.20;99.90;;;;;;5083792;28;19924;-72
2021/07/04 00:18:30;;;;;;;;;;;19.20;99.90;;;;;;5077601;28;19976;-72
2021/07/04 00:20:58;;;;;;;;;;;19.10;99.90;;;;;;5086560;28;20249;-72
2021/07/04 00:23:26;;;;;;;;;;;19.10;99.90;;;;;;5081336;28;19925;-72
2021/07/04 00:25:53;;;;;;;;;;;19.10;99.90;;;;;;5079812;28;20308;-72
2021/07/04 00:28:22;;;;;;;;;;;19.10;99.90;;;;;;5078625;28;19967;-72
2021/07/04 00:30:50;;;;;;;;;;;19.10;99.90;;;;;;5084810;28;19928;-72
2021/07/04 00:33:16;;;;;;;;;;;19.10;99.90;;;;;;5086992;28;19987;-72
2021/07/04 00:35:43;;;;;;;;;;;19.10;99.90;;;;;;5088930;28;19949;-72
2021/07/04 00:38:10;;;;;;;;;;;19.20;99.90;;;;;;5078521;28;20303;-71
2021/07/04 00:40:37;;;;;;;;;;;19.20;99.90;;;;;;5075729;28;19967;-72
2021/07/04 00:43:04;;;;;;;;;;;19.20;99.90;;;;;;5087172;28;20309;-72
2021/07/04 00:45:31;;;;;;;;;;;19.20;99.90;;;;;;5088353;28;20017;-72
2021/07/04 00:47:58;;;;;;;;;;;19.20;99.90;;;;;;5089163;28;19963;-72
2021/07/04 00:50:26;;;;;;;;;;;19.20;99.90;;;;;;5086095;28;20391;-72
2021/07/04 00:52:54;;;;;;;;;;;19.20;99.90;;;;;;5085048;28;19978;-72
2021/07/04 00:55:21;;;;;;;;;;;19.20;99.90;;;;;;5092615;28;19955;-72
2021/07/04 00:57:48;;;;;;;;;;;19.20;99.90;;;;;;5085803;28;20088;-72
2021/07/04 01:00:16;;;;;;;;;;;19.20;99.90;;;;;;5086644;28;19932;-72
2021/07/04 01:02:43;;;;;;;;;;;19.20;99.90;;;;;;5078429;28;19970;-72
2021/07/04 01:05:15;;;;;;;;;;;19.20;99.90;;;;;;5120100;27;20051;-72
2021/07/04 01:07:43;;;;;;;;;;;19.10;99.90;;;;;;5086260;28;19986;-72
2021/07/04 01:10:14;;;;;;;;;;;19.10;99.90;;;;;;5089572;28;19971;-72
2021/07/04 01:12:45;;;;;;;;;;;19.10;99.90;;;;;;5087350;28;20382;-72
2021/07/04 01:15:13;;;;;;;;;;;19.10;99.90;;;;;;5083568;28;19928;-72
2021/07/04 01:17:40;;;;;;;;;;;19.00;99.90;;;;;;5083756;28;19928;-72
2021/07/04 01:20:11;;;;;;;;;;;19.00;99.90;;;;;;5085210;28;19924;-72
2021/07/04 01:22:38;;;;;;;;;;;19.00;99.90;;;;;;5083613;28;19973;-72
2021/07/04 01:25:07;;;;;;;;;;;19.00;99.90;;;;;;5084317;28;19931;-72
2021/07/04 01:27:34;;;;;;;;;;;18.90;99.90;;;;;;5084913;28;20385;-72
2021/07/04 01:30:01;;;;;;;;;;;18.90;99.90;;;;;;5084086;28;20355;-72
2021/07/04 01:32:28;;;;;;;;;;;18.90;99.90;;;;;;5076895;28;19959;-72
2021/07/04 01:34:54;;;;;;;;;;;18.90;99.90;;;;;;5084644;28;19924;-72
2021/07/04 01:37:21;;;;;;;;;;;18.90;99.90;;;;;;5081515;28;20009;-72
2021/07/04 01:39:47;;;;;;;;;;;18.90;99.90;;;;;;5075676;28;19924;-72
2021/07/04 01:42:14;;;;;;;;;;;18.80;99.90;;;;;;5084707;28;20384;-72
2021/07/04 01:44:41;;;;;;;;;;;18.80;99.90;;;;;;5099354;28;19974;-72
2021/07/04 01:47:07;;;;;;;;;;;18.80;99.90;;;;;;5080363;28;19968;-72
2021/07/04 01:49:34;;;;;;;;;;;18.80;99.90;;;;;;5080858;28;20321;-72
2021/07/04 01:52:00;;;;;;;;;;;18.80;99.90;;;;;;5078447;28;19994;-72
2021/07/04 01:54:27;;;;;;;;;;;18.80;99.90;;;;;;5081540;28;19970;-72
2021/07/04 01:56:54;;;;;;;;;;;18.80;99.90;;;;;;5081278;28;20569;-72
2021/07/04 01:59:20;;;;;;;;;;;18.80;99.90;;;;;;5081094;28;19979;-72
2021/07/04 02:01:47;;;;;;;;;;;18.80;99.90;;;;;;5074552;28;19976;-72
2021/07/04 02:04:14;;;;;;;;;;;18.80;99.90;;;;;;5078172;28;19936;-72
2021/07/04 02:06:40;;;;;;;;;;;18.80;99.90;;;;;;5080106;28;20347;-72
2021/07/04 02:09:07;;;;;;;;;;;18.80;99.90;;;;;;5079839;28;19932;-72
2021/07/04 02:11:33;;;;;;;;;;;18.80;99.90;;;;;;5086754;28;19924;-72
2021/07/04 02:14:00;;;;;;;;;;;18.80;99.90;;;;;;5088710;28;20013;-72
2021/07/04 02:16:27;;;;;;;;;;;18.80;99.90;;;;;;5086397;28;19924;-72
2021/07/04 02:18:54;;;;;;;;;;;18.80;99.90;;;;;;5115996;27;19924;-72
2021/07/04 02:21:20;;;;;;;;;;;18.80;99.90;;;;;;5089724;28;19967;-72
2021/07/04 02:23:47;;;;;;;;;;;18.80;99.90;;;;;;5085586;28;20315;-72
2021/07/04 02:26:14;;;;;;;;;;;18.80;99.90;;;;;;5084544;28;19928;-72
2021/07/04 02:28:40;;;;;;;;;;;18.80;99.90;;;;;;5081731;28;19962;-72
2021/07/04 02:31:07;;;;;;;;;;;18.80;99.90;;;;;;5086932;28;20335;-72
2021/07/04 02:33:33;;;;;;;;;;;18.80;99.90;;;;;;5086581;28;19924;-72
2021/07/04 02:36:00;;;;;;;;;;;18.70;99.90;;;;;;5088111;28;19932;-72
2021/07/04 02:38:27;;;;;;;;;;;18.70;99.90;;;;;;5080315;28;19963;-72
2021/07/04 02:40:54;;;;;;;;;;;18.70;99.90;;;;;;5087901;28;20339;-72
2021/07/04 02:43:22;;;;;;;;;;;18.70;99.90;;;;;;5088278;28;19932;-72
2021/07/04 02:45:49;;;;;;;;;;;18.70;99.90;;;;;;5092409;28;19963;-72
2021/07/04 02:48:16;;;;;;;;;;;18.70;99.90;;;;;;5087284;28;20320;-72
2021/07/04 02:50:42;;;;;;;;;;;18.70;99.90;;;;;;5090798;28;19981;-72
2021/07/04 02:53:10;;;;;;;;;;;18.70;99.90;;;;;;5088079;28;19933;-73
2021/07/04 02:55:37;;;;;;;;;;;18.70;99.90;;;;;;5091084;28;19924;-72
2021/07/04 02:58:04;;;;;;;;;;;18.70;99.90;;;;;;5087163;28;19928;-72
2021/07/04 03:00:31;;;;;;;;;;;18.70;99.90;;;;;;5086734;28;19963;-72
2021/07/04 03:02:58;;;;;;;;;;;18.70;99.90;;;;;;5087967;28;19931;-72
2021/07/04 03:05:24;;;;;;;;;;;18.70;99.90;;;;;;5087182;28;19959;-72
2021/07/04 03:07:51;;;;;;;;;;;18.70;99.90;;;;;;5088745;28;19970;-72
2021/07/04 03:10:19;;;;;;;;;;;18.70;99.90;;;;;;5088537;28;19932;-72
2021/07/04 03:12:46;;;;;;;;;;;18.70;99.90;;;;;;5087240;28;19924;-72
2021/07/04 03:15:13;;;;;;;;;;;18.70;99.90;;;;;;5087018;28;19969;-72
2021/07/04 03:17:40;;;;;;;;;;;18.70;99.90;;;;;;5079175;28;19989;-72
2021/07/04 03:20:08;;;;;;;;;;;18.70;99.90;;;;;;5087338;28;20331;-72
2021/07/04 03:22:35;;;;;;;;;;;18.70;99.90;;;;;;5072949;28;19974;-72
2021/07/04 03:25:04;;;;;;;;;;;18.70;99.90;;;;;;5085047;28;20398;-72
2021/07/04 03:27:30;;;;;;;;;;;18.70;99.90;;;;;;5074576;28;20402;-72
2021/07/04 03:29:57;;;;;;;;;;;18.70;99.90;;;;;;5080233;28;19979;-72
2021/07/04 03:32:23;;;;;;;;;;;18.70;99.90;;;;;;5079372;28;19946;-72
2021/07/04 03:34:50;;;;;;;;;;;18.70;99.90;;;;;;5080373;28;20009;-72
2021/07/04 03:37:17;;;;;;;;;;;18.70;99.90;;;;;;5080600;28;19964;-72
2021/07/04 03:39:44;;;;;;;;;;;18.70;99.90;;;;;;5080674;28;20368;-72
2021/07/04 03:42:11;;;;;;;;;;;18.60;99.90;;;;;;5086224;28;19987;-72
2021/07/04 03:44:38;;;;;;;;;;;18.70;99.90;;;;;;5078190;28;19959;-72
2021/07/04 03:47:04;;;;;;;;;;;18.60;99.90;;;;;;5080430;28;19924;-72
2021/07/04 03:49:31;;;;;;;;;;;18.60;99.90;;;;;;5091521;28;19955;-72
2021/07/04 03:51:58;;;;;;;;;;;18.60;99.90;;;;;;5109254;27;19998;-72
2021/07/04 03:54:25;;;;;;;;;;;18.60;99.90;;;;;;5087098;28;20410;-73
2021/07/04 03:56:52;;;;;;;;;;;18.50;99.90;;;;;;5079020;28;20040;-73
2021/07/04 03:59:18;;;;;;;;;;;18.50;99.90;;;;;;5086044;28;19924;-72
2021/07/04 04:01:45;;;;;;;;;;;18.50;99.90;;;;;;5081675;28;20601;-72
2021/07/04 04:04:11;;;;;;;;;;;18.50;99.90;;;;;;5083508;28;19924;-72
2021/07/04 04:06:38;;;;;;;;;;;18.50;99.90;;;;;;5085976;28;20414;-72
2021/07/04 04:09:05;;;;;;;;;;;18.50;99.90;;;;;;5088573;28;20038;-72
2021/07/04 04:11:31;;;;;;;;;;;18.50;99.90;;;;;;5084779;28;20096;-73
2021/07/04 04:13:58;;;;;;;;;;;18.50;99.90;;;;;;5079863;28;19967;-72
2021/07/04 04:16:25;;;;;;;;;;;18.50;99.90;;;;;;5083552;28;19967;-72
2021/07/04 04:18:51;;;;;;;;;;;18.50;99.90;;;;;;5077869;28;20186;-72
2021/07/04 04:21:18;;;;;;;;;;;18.50;99.90;;;;;;5103545;28;20313;-72
2021/07/04 04:23:45;;;;;;;;;;;18.50;99.90;;;;;;5075603;28;19956;-72
2021/07/04 04:26:11;;;;;;;;;;;18.50;99.90;;;;;;5086973;28;20431;-72
2021/07/04 04:28:38;;;;;;;;;;;18.50;99.90;;;;;;5084488;28;19928;-72
2021/07/04 04:31:04;;;;;;;;;;;18.50;99.90;;;;;;5092862;28;19967;-71
2021/07/04 04:33:31;;;;;;;;;;;18.60;99.90;;;;;;5080079;28;19924;-72
2021/07/04 04:35:58;;;;;;;;;;;18.60;99.90;;;;;;5084612;28;19955;-72
2021/07/04 04:38:24;;;;;;;;;;;18.60;99.90;;;;;;5076134;28;20342;-72
2021/07/04 04:40:51;;;;;;;;;;;18.60;99.90;;;;;;5087003;28;19970;-72
2021/07/04 04:43:18;;;;;;;;;;;18.60;99.90;;;;;;5078511;28;19973;-72
2021/07/04 04:45:44;;;;;;;;;;;18.60;99.90;;;;;;5079677;28;19966;-72
2021/07/04 04:48:11;;;;;;;;;;;18.60;99.90;;;;;;5079283;28;20011;-72
2021/07/04 04:50:41;;;;;;;;;;;18.60;99.90;;;;;;5085580;28;19954;-72
2021/07/04 04:53:07;;;;;;;;;;;18.60;99.90;;;;;;5076011;28;19963;-72
2021/07/04 04:55:34;;;;;;;;;;;18.60;99.90;;;;;;5081235;28;19951;-72
2021/07/04 04:58:01;;;;;;;;;;;18.60;99.90;;;;;;5081764;28;19980;-72
2021/07/04 05:00:28;;;;;;;;;;;18.70;99.90;;;;;;5078916;28;20355;-72
2021/07/04 05:02:55;;;;;;;;;;;18.70;99.90;;;;;;5080031;28;19928;-72
2021/07/04 05:05:21;;;;;;;;;;;18.70;99.90;;;;;;5075530;28;19960;-72
2021/07/04 05:07:48;;;;;;;;;;;18.70;99.90;;;;;;5091151;28;19962;-72
2021/07/04 05:10:15;;;;;;;;;;;18.70;99.90;;;;;;5075944;28;19967;-72
2021/07/04 05:12:42;;;;;;;;;;;18.70;99.90;;;;;;5081200;28;19975;-72
2021/07/04 05:15:09;;;;;;;;;;;18.60;99.90;;;;;;5079412;28;20336;-72
2021/07/04 05:17:36;;;;;;;;;;;18.60;99.90;;;;;;5080468;28;19967;-72
2021/07/04 05:20:03;;;;;;;;;;;18.50;99.90;;;;;;5076114;28;19932;-72
2021/07/04 05:22:30;;;;;;;;;;;18.50;99.90;;;;;;5079309;28;19990;-72
2021/07/04 05:24:57;;;;;;;;;;;18.50;99.90;;;;;;5080043;28;19928;-72
2021/07/04 05:27:23;;;;;;;;;;;18.50;99.90;;;;;;5075761;28;19968;-72
2021/07/04 05:29:50;;;;;;;;;;;18.50;99.90;;;;;;5101643;28;19954;-72
2021/07/04 05:32:17;;;;;;;;;;;18.50;99.90;;;;;;5073833;28;20274;-72
2021/07/04 05:34:43;;;;;;;;;;;18.50;99.90;;;;;;5080558;28;19947;-72
2021/07/04 05:37:10;;;;;;;;;;;18.50;99.90;;;;;;5076511;28;20006;-72
2021/07/04 05:39:37;;;;;;;;;;;18.50;99.90;;;;;;5095185;28;19947;-72
2021/07/04 05:42:04;;;;;;;;;;;18.50;99.90;;;;;;5082370;28;20010;-72
2021/07/04 05:44:31;;;;;;;;;;;18.50;99.90;;;;;;5079476;28;19932;-72
2021/07/04 05:46:57;;;;;;;;;;;18.50;99.90;;;;;;5083191;28;19932;-72
2021/07/04 05:49:24;;;;;;;;;;;18.60;99.90;;;;;;5074331;28;20331;-72
2021/07/04 05:51:51;;;;;;;;;;;18.60;99.90;;;;;;5070812;28;19936;-72
2021/07/04 05:54:18;;;;;;;;;;;18.60;99.90;;;;;;5069575;28;19978;-72
2021/07/04 05:56:44;;;;;;;;;;;18.60;99.90;;;;;;5070534;28;20438;-72
2021/07/04 05:59:11;;;;;;;;;;;18.60;99.90;;;;;;5075124;28;20322;-72
2021/07/04 06:01:38;;;;;;;;;;;18.60;99.90;;;;;;5068068;28;19924;-72
2021/07/04 06:04:06;;;;;;;;;;;18.60;99.90;;;;;;5070591;28;20004;-72
2021/07/04 06:06:33;;;;;;;;;;;18.60;99.90;;;;;;5069612;28;20411;-72
2021/07/04 06:08:59;;;;;;;;;;;18.60;99.90;;;;;;5071983;28;19924;-72
2021/07/04 06:11:28;;;;;;;;;;;18.70;99.90;;;;;;5102353;27;19978;-73
2021/07/04 06:13:54;;;;;;;;;;;18.70;99.90;;;;;;5069721;28;20432;-72
2021/07/04 06:16:21;;;;;;;;;;;18.70;99.90;;;;;;5068943;28;20005;-72
2021/07/04 06:18:48;;;;;;;;;;;18.70;99.90;;;;;;5067424;28;19943;-72
2021/07/04 06:21:14;;;;;;;;;;;18.80;99.90;;;;;;5070121;28;19951;-73
2021/07/04 06:23:41;;;;;;;;;;;18.80;99.90;;;;;;5070013;28;20000;-72
2021/07/04 06:26:08;;;;;;;;;;;18.80;99.90;;;;;;5071924;28;19960;-72
2021/07/04 06:28:38;;;;;;;;;;;18.80;99.90;;;;;;5069620;28;19924;-73
2021/07/04 06:31:04;;;;;;;;;;;18.80;99.90;;;;;;5071863;28;20000;-72
2021/07/04 06:33:31;;;;;;;;;;;18.90;99.90;;;;;;5067711;28;19925;-73
2021/07/04 06:35:58;;;;;;;;;;;18.90;99.90;;;;;;5069913;28;19963;-73
2021/07/04 06:38:24;;;;;;;;;;;19.00;99.90;;;;;;5068322;28;19978;-73
2021/07/04 06:40:51;;;;;;;;;;;19.10;99.90;;;;;;5070454;28;20001;-73
2021/07/04 06:43:18;;;;;;;;;;;19.20;99.90;;;;;;5070970;28;20335;-72
2021/07/04 06:45:44;;;;;;;;;;;19.30;99.90;;;;;;5068261;28;19982;-73
2021/07/04 06:48:11;;;;;;;;;;;19.50;99.90;;;;;;5068215;28;19964;-73
2021/07/04 06:50:38;;;;;;;;;;;19.60;99.90;;;;;;5100672;27;20367;-73
2021/07/04 06:53:05;;;;;;;;;;;19.70;99.90;;;;;;5068728;28;20186;-73
2021/07/04 06:55:31;;;;;;;;;;;19.80;99.90;;;;;;5079696;28;20431;-73
2021/07/04 06:57:58;;;;;;;;;;;19.90;99.90;;;;;;5065653;28;19963;-73
2021/07/04 07:00:26;;;;;;;;;;;19.90;99.90;;;;;;5067744;28;19972;-73
2021/07/04 07:02:53;;;;;;;;;;;20.00;99.90;;;;;;5068025;28;20018;-73
2021/07/04 07:05:20;;;;;;;;;;;20.00;99.90;;;;;;5068085;28;20304;-73
2021/07/04 07:07:47;;;;;;;;;;;20.00;99.90;;;;;;5066778;28;19960;-73
2021/07/04 07:10:14;;;;;;;;;;;20.00;99.90;;;;;;5072462;28;19924;-73
2021/07/04 07:12:41;;;;;;;;;;;19.90;99.90;;;;;;5068084;28;19949;-73
2021/07/04 07:15:09;;;;;;;;;;;19.90;99.90;;;;;;5068859;28;19947;-73
2021/07/04 07:17:41;;;;;;;;;;;19.90;99.90;;;;;;5069946;28;19964;-73
2021/07/04 07:20:08;;;;;;;;;;;19.90;99.90;;;;;;5089494;27;19968;-73
2021/07/04 07:22:35;;;;;;;;;;;20.00;99.90;;;;;;5101649;27;19924;-73
2021/07/04 07:25:03;;;;;;;;;;;20.10;99.90;;;;;;5072545;28;19947;-73
2021/07/04 07:27:30;;;;;;;;;;;20.20;99.90;;;;;;5102272;27;20070;-72
2021/07/04 07:29:57;;;;;;;;;;;20.20;99.90;;;;;;5074759;28;20038;-73
2021/07/04 07:32:25;;;;;;;;;;;20.10;99.90;;;;;;5073826;28;20308;-72
2021/07/04 07:34:52;;;;;;;;;;;20.10;99.90;;;;;;5078110;28;20086;-73
2021/07/04 07:37:19;;;;;;;;;;;20.10;99.90;;;;;;5074809;28;19924;-73
2021/07/04 07:39:46;;;;;;;;;;;20.00;99.90;;;;;;5079549;28;19960;-74
2021/07/04 07:42:12;;;;;;;;;;;20.00;99.90;;;;;;5076773;28;20038;-73
2021/07/04 07:44:39;;;;;;;;;;;20.00;99.90;;;;;;5074443;28;19966;-73
2021/07/04 07:47:06;;;;;;;;;;;19.90;99.90;;;;;;5073663;28;19960;-73
2021/07/04 07:49:33;;;;;;;;;;;20.00;99.90;;;;;;5093983;27;19929;-73
2021/07/04 07:51:59;;;;;;;;;;;20.00;99.90;;;;;;5080290;28;20009;-73
2021/07/04 07:54:26;;;;;;;;;;;20.10;99.90;;;;;;5103529;27;19928;-72
2021/07/04 07:56:55;;;;;;;;;;;20.10;99.90;;;;;;5073326;28;20660;-72
2021/07/04 07:59:21;;;;;;;;;;;20.20;99.90;;;;;;5075860;28;20019;-73
2021/07/04 08:01:48;;;;;;;;;;;20.20;99.90;;;;;;5071355;28;19983;-72
2021/07/04 08:04:17;;;;;;;;;;;20.30;99.90;;;;;;5073409;28;22317;-73
2021/07/04 08:06:43;;;;;;;;;;;20.30;99.90;;;;;;5072135;28;19971;-73
2021/07/04 08:09:10;;;;;;;;;;;20.20;99.90;;;;;;5075461;28;20387;-72
2021/07/04 08:11:37;;;;;;;;;;;20.20;99.90;;;;;;5069562;28;20376;-73
2021/07/04 08:14:04;;;;;;;;;;;20.20;99.90;;;;;;5065458;28;19928;-73
2021/07/04 08:16:31;;;;;;;;;;;20.20;99.90;;;;;;5067623;28;19978;-73
2021/07/04 08:18:58;;;;;;;;;;;20.20;99.90;;;;;;5065565;28;19935;-72
2021/07/04 08:21:26;;;;;;;;;;;20.20;99.90;;;;;;5067773;28;19963;-73
2021/07/04 08:23:53;;;;;;;;;;;20.20;99.90;;;;;;5059645;28;20011;-73
2021/07/04 08:26:20;;;;;;;;;;;20.30;99.90;;;;;;5070597;28;19968;-73
2021/07/04 08:28:47;;;;;;;;;;;20.40;99.90;;;;;;5067922;28;19929;-73
2021/07/04 08:31:16;;;;;;;;;;;20.50;99.90;;;;;;5072000;28;20411;-73
2021/07/04 08:33:43;;;;;;;;;;;20.50;99.90;;;;;;5069091;28;19974;-73
2021/07/04 08:36:10;;;;;;;;;;;20.70;99.90;;;;;;5070115;28;20498;-72
2021/07/04 08:38:36;;;;;;;;;;;20.70;99.90;;;;;;5070836;28;20444;-73
2021/07/04 08:41:03;;;;;;;;;;;20.70;99.90;;;;;;5069435;28;20020;-72
2021/07/04 08:43:31;;;;;;;;;;;20.70;99.90;;;;;;5069280;28;20007;-73
2021/07/04 08:45:58;;;;;;;;;;;20.70;99.90;;;;;;5080291;28;19971;-72
2021/07/04 08:48:25;;;;;;;;;;;20.70;99.90;;;;;;5068375;28;19986;-72
2021/07/04 08:50:52;;;;;;;;;;;20.70;99.90;;;;;;5071845;28;20431;-73
2021/07/04 08:53:20;;;;;;;;;;;20.70;99.90;;;;;;5069702;28;19968;-73
2021/07/04 08:55:47;;;;;;;;;;;20.80;99.90;;;;;;5069047;28;20022;-72
2021/07/04 08:58:18;;;;;;;;;;;20.80;99.90;;;;;;5066814;28;20400;-72
2021/07/04 09:00:44;;;;;;;;;;;20.70;99.90;;;;;;5069567;28;19972;-73
2021/07/04 09:03:24;;;;;;;;;;;20.70;99.90;;;;;;5069918;28;20437;-73
2021/07/04 09:05:50;;;;;;;;;;;20.70;99.90;;;;;;5073446;28;19971;-73
2021/07/04 09:08:21;;;;;;;;;;;20.80;99.90;;;;;;5079039;28;19971;-73
2021/07/04 09:11:06;;;;;;;;;;;20.80;99.90;;;;;;5107660;27;20415;-73
2021/07/04 09:13:33;;;;;;;;;;;20.80;99.90;;;;;;5071015;28;20330;-73
2021/07/04 09:16:08;;;;;;;;;;;20.90;99.90;;;;;;5063900;28;20410;-73
2021/07/04 09:18:35;;;;;;;;;;;20.90;99.90;;;;;;5066238;28;20275;-73
2021/07/04 09:21:14;;;;;;;;;;;21.00;99.90;;;;;;5072371;28;19932;-73
2021/07/04 09:23:40;;;;;;;;;;;21.00;99.90;;;;;;5071440;28;20021;-73
2021/07/04 09:26:07;;;;;;;;;;;21.00;99.90;;;;;;5070244;28;20016;-73
2021/07/04 09:28:42;;;;;;;;;;;21.00;99.90;;;;;;5072603;28;20033;-72
2021/07/04 09:31:17;;;;;;;;;;;21.00;99.90;;;;;;5072566;28;20324;-73
2021/07/04 09:33:44;;;;;;;;;;;21.00;99.90;;;;;;5069816;28;19968;-72
2021/07/04 09:36:10;;;;;;;;;;;21.00;99.90;;;;;;5071776;28;19925;-72
2021/07/04 09:38:38;;;;;;;;;;;21.00;99.90;;;;;;5070421;28;19985;-72
2021/07/04 09:41:09;;;;;;;;;;;21.10;99.90;;;;;;5070682;28;20110;-72
2021/07/04 09:43:36;;;;;;;;;;;21.10;99.90;;;;;;5071097;28;19979;-72
2021/07/04 09:46:04;;;;;;;;;;;21.10;99.90;;;;;;5070034;28;19956;-72
2021/07/04 09:48:31;;;;;;;;;;;21.20;99.90;;;;;;5070903;28;19956;-73
2021/07/04 09:51:02;;;;;;;;;;;21.20;99.90;;;;;;5074194;28;19924;-72
2021/07/04 09:53:39;;;;;;;;;;;21.30;99.90;;;;;;5070374;28;19964;-72
2021/07/04 09:56:09;;;;;;;;;;;21.30;99.90;;;;;;5074881;28;19968;-72
2021/07/04 09:58:36;;;;;;;;;;;21.30;99.90;;;;;;5071702;28;19968;-72
2021/07/04 10:01:03;;;;;;;;;;;21.30;99.90;;;;;;5076498;28;19940;-72
2021/07/04 10:03:30;;;;;;;;;;;21.30;99.90;;;;;;5074326;28;20385;-72
2021/07/04 10:06:01;;;;;;;;;;;21.30;99.90;;;;;;5071224;28;20019;-73
2021/07/04 10:08:29;;;;;;;;;;;21.30;99.90;;;;;;5069236;28;20376;-73
2021/07/04 10:10:58;;;;;;;;;;;21.30;99.90;;;;;;5071454;28;19980;-72
2021/07/04 10:13:26;;;;;;;;;;;21.40;99.90;;;;;;5070425;28;20340;-73
2021/07/04 10:15:53;;;;;;;;;;;21.40;99.90;;;;;;5070707;28;20412;-72
2021/07/04 10:18:20;;;;;;;;;;;21.50;99.90;;;;;;5070300;28;20395;-72
2021/07/04 10:20:47;;;;;;;;;;;21.50;99.90;;;;;;5071507;28;19966;-72
2021/07/04 10:23:16;;;;;;;;;;;21.50;99.90;;;;;;5074138;28;19971;-73
2021/07/04 10:25:43;;;;;;;;;;;21.50;99.90;;;;;;5081822;28;20043;-72
2021/07/04 10:28:11;;;;;;;;;;;21.50;99.90;;;;;;5069666;28;19932;-72
2021/07/04 10:30:39;;;;;;;;;;;21.50;99.90;;;;;;5069361;28;19924;-72
2021/07/04 10:33:12;;;;;;;;;;;21.50;99.90;;;;;;5068386;28;19964;-72
2021/07/04 10:35:57;;;;;;;;;;;21.50;99.90;;;;;;5073456;28;20005;-72
2021/07/04 10:38:25;;;;;;;;;;;21.50;99.90;;;;;;5100173;27;19946;-72
2021/07/04 10:41:04;;;;;;;;;;;21.60;99.90;;;;;;5068973;28;19982;-72
2021/07/04 10:43:47;;;;;;;;;;;21.70;99.90;;;;;;5071074;28;19990;-72
2021/07/04 10:46:14;;;;;;;;;;;21.70;99.90;;;;;;5070341;28;19963;-73
2021/07/04 10:48:54;;;;;;;;;;;21.80;99.90;;;;;;5070510;28;20000;-72
2021/07/04 10:51:21;;;;;;;;;;;21.90;99.90;;;;;;5071484;28;20371;-72
2021/07/04 10:53:48;;;;;;;;;;;22.10;99.90;;;;;;5068143;28;19952;-72
2021/07/04 10:56:33;;;;;;;;;;;22.30;99.90;;;;;;5070261;28;19968;-72
2021/07/04 10:59:13;;;;;;;;;;;22.30;99.90;;;;;;5069165;28;21997;-72
2021/07/04 11:02:11;;;;;;;;;;;22.50;99.90;;;;;;5071670;28;19959;-72
2021/07/04 11:04:58;;;;;;;;;;;22.40;99.90;;;;;;5071135;28;20398;-72
2021/07/04 11:07:24;;;;;;;;;;;22.40;99.90;;;;;;5069963;28;20410;-72
2021/07/04 11:09:51;;;;;;;;;;;22.30;99.90;;;;;;5083175;28;20020;-72
2021/07/04 11:12:36;;;;;;;;;;;22.30;99.90;;;;;;5068374;28;20018;-72
2021/07/04 11:15:13;;;;;;;;;;;22.30;99.90;;;;;;5067080;28;19932;-72
2021/07/04 11:20:25;;;;;;;;;;;22.20;99.90;;;;;;5069019;28;19970;-72
2021/07/04 11:22:53;;;;;;;;;;;22.10;99.90;;;;;;5066170;28;19956;-72
2021/07/04 11:25:21;;;;;;;;;;;22.10;99.90;;;;;;5068590;28;19924;-72
2021/07/04 11:28:06;;;;;;;;;;;22.00;99.90;;;;;;5066757;28;19967;-72
2021/07/04 11:30:33;;;;;;;;;;;21.90;99.90;;;;;;5070531;28;20537;-72
2021/07/04 11:33:19;;;;;;;;;;;21.90;99.90;;;;;;5065431;28;19925;-72
2021/07/04 11:35:45;;;;;;;;;;;21.90;99.90;;;;;;5066724;28;22524;-72
2021/07/04 11:38:15;;;;;;;;;;;21.80;99.90;;;;;;5067256;28;20026;-72
2021/07/04 11:40:43;;;;;;;;;;;21.70;99.90;;;;;;5071177;28;20028;-72
2021/07/04 11:43:10;;;;;;;;;;;21.70;99.90;;;;;;5066656;28;20019;-73
2021/07/04 11:45:37;;;;;;;;;;;21.70;99.90;;;;;;5067652;28;20037;-72
2021/07/04 11:48:04;;;;;;;;;;;21.70;99.90;;;;;;5067783;28;20346;-72
2021/07/04 11:50:43;;;;;;;;;;;21.70;99.90;;;;;;5066581;28;20015;-72
2021/07/04 11:53:20;;;;;;;;;;;21.70;99.90;;;;;;5064822;28;20361;-72
2021/07/04 11:56:00;;;;;;;;;;;21.70;99.90;;;;;;5069694;28;20007;-72
2021/07/04 11:58:27;;;;;;;;;;;21.70;99.90;;;;;;5065416;28;20441;-72
2021/07/04 12:00:54;;;;;;;;;;;21.80;99.90;;;;;;5077468;28;19979;-73
2021/07/04 12:03:22;;;;;;;;;;;21.90;99.90;;;;;;5071450;28;19952;-72
2021/07/04 12:05:49;;;;;;;;;;;22.00;99.90;;;;;;5067369;28;20265;-72
2021/07/04 12:08:16;;;;;;;;;;;22.10;99.90;;;;;;5070871;28;20011;-68
2021/07/04 12:10:47;;;;;;;;;;;22.10;99.90;;;;;;5068900;28;20393;-68
2021/07/04 12:13:14;;;;;;;;;;;22.20;99.90;;;;;;5067102;28;20066;-68
2021/07/04 12:15:41;;;;;;;;;;;22.20;99.90;;;;;;5067294;28;19970;-68
2021/07/04 12:18:12;;;;;;;;;;;22.30;99.90;;;;;;5067288;28;19924;-67
2021/07/04 12:20:39;;;;;;;;;;;22.30;99.90;;;;;;5066609;28;20032;-68
2021/07/04 12:23:06;;;;;;;;;;;22.40;99.90;;;;;;5064802;28;20392;-68
2021/07/04 12:25:39;;;;;;;;;;;22.40;99.90;;;;;;5067750;28;20252;-68
2021/07/04 12:28:07;;;;;;;;;;;22.40;99.90;;;;;;5064218;28;19967;-68
2021/07/04 12:30:35;;;;;;;;;;;22.40;99.90;;;;;;5066414;28;19967;-68
2021/07/04 12:33:07;;;;;;;;;;;22.50;99.90;;;;;;5062747;28;19934;-68
2021/07/04 12:35:50;;;;;;;;;;;22.50;99.90;;;;;;5063154;28;19971;-68
2021/07/04 12:38:22;;;;;;;;;;;22.60;99.90;;;;;;5075185;28;20336;-68
2021/07/04 12:40:57;;;;;;;;;;;22.60;99.90;;;;;;5064668;28;19964;-68
2021/07/04 12:43:28;;;;;;;;;;;22.60;99.90;;;;;;5094310;27;20403;-68
2021/07/04 12:45:57;;;;;;;;;;;22.60;99.90;;;;;;5063544;28;19968;-67
2021/07/04 12:48:24;;;;;;;;;;;22.70;99.90;;;;;;5065847;28;20021;-68
2021/07/04 12:50:56;;;;;;;;;;;22.70;99.90;;;;;;5067527;28;19934;-68
2021/07/04 12:53:52;;;;;;;;;;;22.70;99.90;;;;;;5064114;28;19928;-68
2021/07/04 12:56:21;;;;;;;;;;;22.80;99.90;;;;;;5063779;28;19924;-68
2021/07/04 12:58:54;;;;;;;;;;;22.70;99.90;;;;;;5063463;28;19983;-68
2021/07/04 13:01:25;;;;;;;;;;;22.80;99.90;;;;;;5067425;28;20023;-68
2021/07/04 13:03:56;;;;;;;;;;;22.80;99.90;;;;;;5064258;28;20032;-68
2021/07/04 13:06:45;;;;;;;;;;;22.70;99.90;;;;;;5066907;28;19988;-68
2021/07/04 13:09:16;;;;;;;;;;;22.70;99.90;;;;;;5065060;28;19963;-68
2021/07/04 13:11:54;;;;;;;;;;;22.70;99.90;;;;;;5064588;28;19974;-68
2021/07/04 13:14:31;;;;;;;;;;;22.60;99.90;;;;;;5064556;28;20066;-68
2021/07/04 13:16:57;;;;;;;;;;;22.60;99.90;;;;;;5066695;28;19982;-68
2021/07/04 13:19:25;;;;;;;;;;;22.60;99.90;;;;;;5064571;28;19972;-68
2021/07/04 13:21:53;;;;;;;;;;;22.50;99.90;;;;;;5063811;28;20391;-68
2021/07/04 13:24:30;;;;;;;;;;;22.50;99.90;;;;;;5066370;28;19971;-68
2021/07/04 13:26:57;;;;;;;;;;;22.50;99.90;;;;;;5067653;28;20020;-68
2021/07/04 13:29:25;;;;;;;;;;;22.50;99.90;;;;;;5069212;28;19951;-68
2021/07/04 13:32:13;;;;;;;;;;;22.50;99.90;;;;;;5065832;28;20042;-68
2021/07/04 13:34:41;;;;;;;;;;;22.40;99.90;;;;;;5066308;28;19958;-69
2021/07/04 13:37:08;;;;;;;;;;;22.40;99.90;;;;;;5067347;28;24489;-68
2021/07/04 13:40:04;;;;;;;;;;;22.50;99.90;;;;;;5071859;28;20504;-68
2021/07/04 13:42:33;;;;;;;;;;;22.40;99.90;;;;;;5078400;27;20352;-68
2021/07/04 13:45:02;;;;;;;;;;;22.50;99.90;;;;;;5068159;28;19924;-67
2021/07/04 13:47:28;;;;;;;;;;;22.50;99.90;;;;;;5069773;28;19932;-68
2021/07/04 13:49:55;;;;;;;;;;;22.50;99.90;;;;;;5075818;28;20014;-68
2021/07/04 13:52:22;;;;;;;;;;;22.50;99.90;;;;;;5067629;28;20185;-68
2021/07/04 13:54:49;;;;;;;;;;;22.50;99.90;;;;;;5065665;28;19932;-68
2021/07/04 13:57:16;;;;;;;;;;;22.40;99.90;;;;;;5068460;28;19971;-68
2021/07/04 13:59:43;;;;;;;;;;;22.40;99.90;;;;;;5068696;28;19924;-68
2021/07/04 14:02:10;;;;;;;;;;;22.40;99.90;;;;;;5066105;28;20379;-68
2021/07/04 14:04:36;;;;;;;;;;;22.30;99.90;;;;;;5068191;28;19936;-69
2021/07/04 14:07:07;;;;;;;;;;;22.30;99.90;;;;;;5069379;28;19946;-68
2021/07/04 14:09:36;;;;;;;;;;;22.20;99.90;;;;;;5067904;28;19995;-68
2021/07/04 14:12:03;;;;;;;;;;;22.20;99.90;;;;;;5071289;28;19928;-68
2021/07/04 14:14:30;;;;;;;;;;;22.20;99.90;;;;;;5069290;28;19975;-68
2021/07/04 14:16:58;;;;;;;;;;;22.20;99.90;;;;;;5102095;27;20050;-68
2021/07/04 14:19:25;;;;;;;;;;;22.10;99.90;;;;;;5072013;28;20126;-68
2021/07/04 14:21:51;;;;;;;;;;;22.10;99.90;;;;;;5070073;28;20086;-68
2021/07/04 14:24:18;;;;;;;;;;;22.10;99.90;;;;;;5072619;28;19965;-69
2021/07/04 14:26:45;;;;;;;;;;;22.10;99.90;;;;;;5070337;28;19936;-68